Terminal Aerodrome Forecast
Issued by NWS

Home | Current Version | Previous Version | Text Only | Print | Product List | Glossary On
Versions: 1 2 3 4 5 6 7 8 9 10 11 12 13 14 15 16 17 18 19 20 21 22 23 24 25 26 27 28 29 30 31 32 33 34 35
000
FTUS45 KPSR 300427 AAF
TAFPHX
TAF AMD
KPHX 300427Z 3004/3024 09008KT P6SM FEW090 BKN150 BKN200
     FM300600 10005KT P6SM SCT150 BKN200
     FM301800 28007KT P6SM FEW150 SCT200=

USA.gov is the U.S. government's official web portal to all federal, state and local government web resources and services.